Terminal Aerodrome Forecast
Issued by NWS

Home | Current Version | Previous Version | Text Only | Print | Product List | Glossary On
Versions: 1 2 3 4 5 6 7 8 9 10 11 12 13 14 15 16 17 18 19
000
FTUS42 KILM 202132 AAA
TAFCRE
TAF AMD
KCRE 202132Z 2022/2118 21011KT P6SM SCT025
     FM210700 21004KT 6SM BR BKN005
     FM211500 20006KT P6SM BKN025=

USA.gov is the U.S. government's official web portal to all federal, state and local government web resources and services.